D/T METAR WX W/DIR W/SPE G/SPE TEMP DEWP
9/12/19 12:50 EGGD 091250Z AUTO 31015KT 9999 SCT037 BKN043 08/01 Q1017 NW (310°) 17.3mph 8°C 1°C
9/12/19 12:20 EGGD 091220Z 30016KT 9999 FEW039 09/02 Q1017 WNW (300°) 18.4mph 9°C 2°C
9/12/19 11:50 EGGD 091150Z 31017KT 9999 FEW038 08/02 Q1016 NW (310°) 19.6mph 8°C 2°C
9/12/19 10:50 EGGD 091050Z AUTO 31015KT 9999 BKN035 08/02 Q1014 NW (310°) 17.3mph 8°C 2°C
9/12/19 10:20 EGGD 091020Z 31015KT 9999 SCT033 08/02 Q1014 NW (310°) 17.3mph 8°C 2°C
9/12/19 09:50 EGGD 090950Z 31016KT 9999 SCT032 08/03 Q1013 NW (310°) 18.4mph 8°C 3°C
9/12/19 09:20 EGGD 090920Z 31014KT 9999 FEW035 08/03 Q1011 NW (310°) 16.1mph 8°C 3°C
9/12/19 08:20 EGGD 090820Z 30014KT 9999 FEW030 07/03 Q1009 WNW (300°) 16.1mph 7°C 3°C
9/12/19 07:50 EGGD 090750Z AUTO 31016KT 9999 SCT032 BKN048 07/03 Q1008 NW (310°) 18.4mph 7°C 3°C
9/12/19 07:20 EGGD 090720Z 30015KT 9999 FEW033 07/03 Q1006 WNW (300°) 17.3mph 7°C 3°C
9/12/19 06:50 EGGD 090650Z 31018KT 9999 FEW032 07/03 Q1005 NW (310°) 20.7mph 7°C 3°C
9/12/19 06:20 EGGD 090620Z AUTO 31019KT 9999 BKN030 07/03 Q1003 NW (310°) 21.9mph 7°C 3°C
9/12/19 05:50 EGGD 090550Z AUTO 30019KT 9999 SCT026 BKN031 07/04 Q1002 WNW (300°) 21.9mph 7°C 4°C
9/12/19 05:20 EGGD 090520Z AUTO 30024KT 9999 SCT030 BKN039 BKN046 07/04 Q1001 WNW (300°) 27.6mph 7°C 4°C
9/12/19 04:50 EGGD 090450Z AUTO 31021G32KT 9999 BKN032 08/03 Q0999 NW (310°) 24.2mph 36.8mph 8°C 3°C
9/12/19 04:20 EGGD 090420Z AUTO 30025G35KT 9999 BKN025 BKN031 OVC046 08/05 Q0997 WNW (300°) 28.8mph 40.3mph 8°C 5°C
9/12/19 03:50 EGGD 090350Z AUTO 29021G31KT 9999 BKN017 OVC032 08/05 Q0996 WNW (290°) 24.2mph 35.7mph 8°C 5°C
9/12/19 03:20 EGGD 090320Z AUTO 27023G33KT 9999 -RA OVC020 07/05 Q0994 -RA W (270°) 26.5mph 38.0mph 7°C 5°C
9/12/19 02:50 EGGD 090250Z AUTO 27024KT 9999 -RA BKN018 OVC027 07/05 Q0994 -RA W (270°) 27.6mph 7°C 5°C
9/12/19 02:20 EGGD 090220Z AUTO 27024G34KT 9999 -RA BKN020/// OVC030/// //////TCU 07/05 Q0993 -RA W (270°) 27.6mph 39.1mph 7°C 5°C
9/12/19 01:50 EGGD 090150Z AUTO 27025G36KT 9999 BKN019 OVC027 07/05 Q0993 W (270°) 28.8mph 41.4mph 7°C 5°C
9/12/19 01:20 EGGD 090120Z AUTO 26025G36KT 9999 -RA BKN024 BKN048 07/04 Q0993 -RA W (260°) 28.8mph 41.4mph 7°C 4°C
9/12/19 00:50 EGGD 090050Z AUTO 27021KT 9999 BKN023 OVC038 07/04 Q0993 W (270°) 24.2mph 7°C 4°C
9/12/19 00:20 EGGD 090020Z AUTO 27022KT 9999 BKN019 BKN027 07/04 Q0993 W (270°) 25.3mph 7°C 4°C
8/12/19 23:50 EGGD 082350Z AUTO 27024KT 9999 BKN019 BKN023 OVC037 07/04 Q0993 W (270°) 27.6mph 7°C 4°C
8/12/19 23:20 EGGD 082320Z AUTO 27024KT 9999 BKN018 OVC029 07/05 Q0992 W (270°) 27.6mph 7°C 5°C
8/12/19 22:50 EGGD 082250Z AUTO 27024KT 9999 -RA BKN008 OVC015 07/06 Q0991 -RA W (270°) 27.6mph 7°C 6°C
8/12/19 22:20 EGGD 082220Z AUTO 25018G28KT 8000 -RA BKN003/// OVC010/// //////CB 06/06 Q0990 RERA -RA WSW (250°) 20.7mph 32.2mph 6°C 6°C
8/12/19 21:50 EGGD 082150Z AUTO 21012KT 3700 RA BKN004/// OVC008/// //////CB 05/05 Q0990 RERA RA SSW (210°) 13.8mph 5°C 5°C
8/12/19 21:20 EGGD 082120Z AUTO 20011KT 5000 -RA SCT007/// BKN014/// OVC018/// //////TCU 05/04 Q0992 RERA -RA SSW (200°) 12.7mph 5°C 4°C
8/12/19 20:20 EGGD 082020Z AUTO 22014KT 9999 SCT023/// BKN029/// BKN035/// //////TCU 05/03 Q0995 SW (220°) 16.1mph 5°C 3°C
8/12/19 19:50 EGGD 081950Z AUTO 23021G32KT 9999 -RA SCT015/// BKN020/// BKN027/// //////CB 06/03 Q0996 -RA SW (230°) 24.2mph 36.8mph 6°C 3°C
8/12/19 18:50 EGGD 081850Z AUTO 22013KT 9999 BKN021/// //////TCU 06/03 Q0996 SW (220°) 15.0mph 6°C 3°C
8/12/19 18:20 EGGD 081820Z AUTO 23015KT 9999 BKN021 OVC031 06/03 Q0997 SW (230°) 17.3mph 6°C 3°C
8/12/19 17:50 EGGD 081750Z AUTO 24018KT 9999 BKN024/// OVC046/// //////TCU 07/03 Q0997 WSW (240°) 20.7mph 7°C 3°C
8/12/19 17:20 EGGD 081720Z AUTO 24018KT 9999 BKN025/// BKN030/// BKN040/// //////CB 07/03 Q0997 WSW (240°) 20.7mph 7°C 3°C
8/12/19 16:20 EGGD 081620Z AUTO 25015KT 9999 FEW024/// BKN036/// //////TCU 06/04 Q0998 RESHRA WSW (250°) 17.3mph 6°C 4°C
8/12/19 15:50 EGGD 081550Z 26021G34KT 230V290 9000 SHRA SCT011 BKN020 06/04 Q0999 SHRA W (260°) 24.2mph 39.1mph 6°C 4°C
8/12/19 15:20 EGGD 081520Z AUTO 25018KT 9999 SCT018 BKN025 BKN038 07/04 Q0999 WSW (250°) 20.7mph 7°C 4°C
8/12/19 14:50 EGGD 081450Z AUTO 23016KT 9999 -RA BKN016/// BKN021/// OVC029/// //////CB 07/04 Q0999 -RA SW (230°) 18.4mph 7°C 4°C
8/12/19 14:20 EGGD 081420Z AUTO 24015KT 9000 -RA BKN018/// BKN026/// //////TCU 06/04 Q0999 -RA WSW (240°) 17.3mph 6°C 4°C
8/12/19 13:20 EGGD 081320Z AUTO 24018KT 9999 SCT028/// //////CB 06/02 Q1000 RESHRA WSW (240°) 20.7mph 6°C 2°C
8/12/19 12:50 EGGD 081250Z 25018G28KT 9999 VCSH FEW031 SCT036 08/03 Q1000 VCSH WSW (250°) 20.7mph 32.2mph 8°C 3°C
8/12/19 12:20 EGGD 081220Z AUTO 25018KT 9999 BKN024 OVC039 08/04 Q1000 WSW (250°) 20.7mph 8°C 4°C
8/12/19 11:50 EGGD 081150Z AUTO 25020KT 9999 SCT026/// BKN031/// //////TCU 08/04 Q1001 WSW (250°) 23.0mph 8°C 4°C
8/12/19 11:20 EGGD 081120Z 24018KT 9999 VCSH FEW024CB SCT030 08/05 Q1001 VCSH WSW (240°) 20.7mph 8°C 5°C
8/12/19 10:20 EGGD 081020Z 25017KT 9999 FEW024TCU SCT035 08/04 Q1002 WSW (250°) 19.6mph 8°C 4°C
8/12/19 09:50 EGGD 080950Z AUTO 25019KT 9999 FEW021/// //////TCU 07/04 Q1002 WSW (250°) 21.9mph 7°C 4°C